createdAt,value
2018-02-10T00:00:43.470Z,-0.55
2018-02-10T00:03:18.337Z,-0.55
2018-02-10T00:05:53.369Z,-0.53
2018-02-10T00:08:28.269Z,-0.52
2018-02-10T00:11:03.190Z,-0.55
2018-02-10T00:13:37.899Z,-0.57
2018-02-10T00:16:12.849Z,-0.57
2018-02-10T00:18:47.722Z,-0.58
2018-02-10T00:21:22.758Z,-0.62
2018-02-10T00:23:58.174Z,-0.63
2018-02-10T00:26:32.792Z,-0.66
2018-02-10T00:29:08.150Z,-0.66
2018-02-10T00:31:43.305Z,-0.68
2018-02-10T00:34:17.653Z,-0.68
2018-02-10T00:36:52.390Z,-0.70
2018-02-10T00:39:27.668Z,-0.74
2018-02-10T00:42:02.509Z,-0.78
2018-02-10T00:44:37.673Z,-0.79
2018-02-10T00:47:12.417Z,-0.83
2018-02-10T00:49:47.373Z,-0.85
2018-02-10T00:52:22.370Z,-0.87
2018-02-10T00:54:56.974Z,-0.89
2018-02-10T00:57:31.909Z,-0.94
2018-02-10T01:00:06.956Z,-0.98
2018-02-10T01:02:42.271Z,-1.02
2018-02-10T01:05:17.446Z,-1.04
2018-02-10T01:07:51.793Z,-1.05
2018-02-10T01:10:26.885Z,-1.07
2018-02-10T01:13:01.834Z,-1.10
2018-02-10T01:15:36.689Z,-1.15
2018-02-10T01:18:11.766Z,-1.20
2018-02-10T01:20:46.749Z,-1.23
2018-02-10T01:23:21.586Z,-1.24
2018-02-10T01:25:56.527Z,-1.22
2018-02-10T01:28:31.957Z,-1.23
2018-02-10T01:31:07.531Z,-1.23
2018-02-10T01:33:42.714Z,-1.21
2018-02-10T01:36:17.552Z,-1.18
2018-02-10T01:38:52.486Z,-1.17
2018-02-10T01:41:27.333Z,-1.16
2018-02-10T01:44:02.490Z,-1.15
2018-02-10T01:46:37.645Z,-1.18
2018-02-10T01:49:12.145Z,-1.19
2018-02-10T01:51:47.593Z,-1.19
2018-02-10T01:54:23.483Z,-1.19
2018-02-10T01:56:58.187Z,-1.19
2018-02-10T01:59:32.986Z,-1.23
2018-02-10T02:02:07.917Z,-1.27
2018-02-10T02:04:43.085Z,-1.29
2018-02-10T02:07:17.788Z,-1.33
2018-02-10T02:09:52.705Z,-1.35
2018-02-10T02:12:27.695Z,-1.38
2018-02-10T02:15:02.693Z,-1.42
2018-02-10T02:17:37.645Z,-1.41
2018-02-10T02:20:12.362Z,-1.40
2018-02-10T02:22:47.878Z,-1.38
2018-02-10T02:25:23.134Z,-1.35
2018-02-10T02:27:57.831Z,-1.35
2018-02-10T02:30:32.990Z,-1.33
2018-02-10T02:33:07.817Z,-1.30
2018-02-10T02:35:42.704Z,-1.28
2018-02-10T02:38:17.834Z,-1.27
2018-02-10T02:40:52.519Z,-1.23
2018-02-10T02:43:27.374Z,-1.19
2018-02-10T02:46:02.249Z,-1.18
2018-02-10T02:48:37.156Z,-1.16
2018-02-10T02:51:12.366Z,-1.11
2018-02-10T02:53:47.242Z,-1.08
2018-02-10T02:56:22.265Z,-1.05
2018-02-10T02:58:57.056Z,-1.01
2018-02-10T03:01:32.235Z,-0.98
2018-02-10T03:04:06.918Z,-0.98
2018-02-10T03:06:41.911Z,-0.96
2018-02-10T03:09:16.406Z,-0.94
2018-02-10T03:11:51.045Z,-0.92
2018-02-10T03:14:26.006Z,-0.90
2018-02-10T03:17:00.928Z,-0.89
2018-02-10T03:19:35.880Z,-0.82
2018-02-10T03:22:10.950Z,-0.80
2018-02-10T03:24:45.810Z,-0.78
2018-02-10T03:27:20.830Z,-0.75
2018-02-10T03:29:55.922Z,-0.73
2018-02-10T03:32:32.270Z,-0.69
2018-02-10T03:35:06.843Z,-0.66
2018-02-10T03:37:42.202Z,-0.62
2018-02-10T03:40:16.933Z,-0.59
2018-02-10T03:42:51.630Z,-0.59
2018-02-10T03:45:26.785Z,-0.57
2018-02-10T03:48:01.434Z,-0.56
2018-02-10T03:50:35.715Z,-0.52
2018-02-10T03:53:10.974Z,-0.50
2018-02-10T03:55:46.225Z,-0.51
2018-02-10T03:58:20.579Z,-0.51
2018-02-10T04:00:55.477Z,-0.51
2018-02-10T04:03:30.336Z,-0.60
2018-02-10T04:06:05.453Z,-0.47
2018-02-10T04:08:40.470Z,-0.43
2018-02-10T04:11:14.969Z,-0.38
2018-02-10T04:13:50.273Z,-0.34
2018-02-10T04:16:24.966Z,-0.29
2018-02-10T04:18:59.603Z,-0.23
2018-02-10T04:21:34.486Z,-0.22
2018-02-10T04:24:09.316Z,-0.22
2018-02-10T04:26:44.271Z,-0.22
2018-02-10T04:29:19.246Z,-0.21
2018-02-10T04:31:54.167Z,-0.20
2018-02-10T04:34:29.222Z,-0.18
2018-02-10T04:37:04.149Z,-0.14
2018-02-10T04:39:39.470Z,-0.12
2018-02-10T04:42:14.205Z,-0.11
2018-02-10T04:44:49.122Z,-0.09
2018-02-10T04:47:24.120Z,-0.09
2018-02-10T04:49:58.586Z,-0.08
2018-02-10T04:52:33.375Z,-0.06
2018-02-10T04:55:08.199Z,-0.05
2018-02-10T04:57:43.209Z,-0.06
2018-02-10T05:00:17.702Z,-0.03
2018-02-10T05:02:52.630Z,-0.03
2018-02-10T05:05:27.578Z,-0.02
2018-02-10T05:08:03.097Z,-0.02
2018-02-10T05:10:37.601Z,-0.05
2018-02-10T05:13:12.546Z,-0.06
2018-02-10T05:15:47.489Z,-0.06
2018-02-10T05:18:22.326Z,-0.05
2018-02-10T05:20:57.378Z,-0.02
2018-02-10T05:23:32.692Z,0.00
2018-02-10T05:26:07.465Z,0.01
2018-02-10T05:28:42.418Z,0.00
2018-02-10T05:31:17.247Z,-0.01
2018-02-10T05:33:52.162Z,-0.02
2018-02-10T05:36:27.408Z,0.01
2018-02-10T05:39:02.334Z,0.02
2018-02-10T05:41:37.197Z,0.02
2018-02-10T05:44:12.303Z,0.03
2018-02-10T05:46:47.332Z,0.03
2018-02-10T05:49:22.300Z,0.01
2018-02-10T05:51:57.147Z,0.04
2018-02-10T05:54:32.562Z,0.06
2018-02-10T05:57:07.585Z,0.09
2018-02-10T05:59:42.562Z,0.11
2018-02-10T06:02:17.634Z,0.14
2018-02-10T06:04:52.698Z,0.17
2018-02-10T06:07:27.649Z,0.18
2018-02-10T06:10:02.450Z,0.19
2018-02-10T06:12:37.326Z,0.19
2018-02-10T06:15:12.393Z,0.20
2018-02-10T06:17:48.251Z,0.19
2018-02-10T06:20:22.887Z,0.19
2018-02-10T06:22:57.771Z,0.20
2018-02-10T06:25:32.770Z,0.20
2018-02-10T06:28:07.502Z,0.18
2018-02-10T06:30:42.422Z,0.25
2018-02-10T06:33:17.465Z,0.27
2018-02-10T06:35:52.510Z,0.29
2018-02-10T06:38:27.225Z,0.36
2018-02-10T06:41:02.226Z,0.43
2018-02-10T06:43:36.790Z,0.47
2018-02-10T06:46:11.742Z,0.54
2018-02-10T06:48:46.886Z,0.64
2018-02-10T06:51:21.676Z,0.71
2018-02-10T06:53:56.534Z,0.76
2018-02-10T06:56:30.975Z,0.80
2018-02-10T06:59:06.300Z,0.82
2018-02-10T07:01:40.785Z,0.83
2018-02-10T07:04:15.637Z,0.83
2018-02-10T07:06:50.458Z,0.83
2018-02-10T07:09:25.526Z,0.81
2018-02-10T07:12:00.430Z,0.81
2018-02-10T07:14:35.497Z,0.81
2018-02-10T07:17:10.490Z,0.81
2018-02-10T07:19:45.538Z,0.80
2018-02-10T07:22:20.409Z,0.81
2018-02-10T07:24:54.742Z,0.82
2018-02-10T07:27:29.685Z,0.78
2018-02-10T07:30:04.752Z,0.78
2018-02-10T07:32:39.508Z,0.81
2018-02-10T07:35:14.530Z,0.84
2018-02-10T07:37:49.457Z,0.95
2018-02-10T07:40:24.462Z,1.21
2018-02-10T07:42:59.405Z,1.41
2018-02-10T07:45:34.242Z,1.51
2018-02-10T07:48:09.333Z,1.54
2018-02-10T07:50:44.202Z,1.54
2018-02-10T07:53:18.761Z,1.57
2018-02-10T07:55:53.630Z,1.57
2018-02-10T07:58:28.685Z,1.47
2018-02-10T08:01:03.733Z,1.36
2018-02-10T08:03:38.882Z,1.36
2018-02-10T08:06:13.671Z,1.34
2018-02-10T08:08:48.826Z,1.36
2018-02-10T08:11:23.545Z,1.39
2018-02-10T08:13:58.548Z,1.55
2018-02-10T08:16:33.925Z,1.63
2018-02-10T08:19:08.517Z,1.71
2018-02-10T08:21:43.402Z,1.83
2018-02-10T08:24:17.951Z,1.87
2018-02-10T08:26:52.658Z,1.90
2018-02-10T08:29:27.758Z,1.86
2018-02-10T08:32:02.810Z,1.74
2018-02-10T08:34:37.770Z,1.61
2018-02-10T08:37:12.757Z,1.75
2018-02-10T08:39:47.782Z,1.81
2018-02-10T08:42:22.642Z,1.80
2018-02-10T08:44:57.552Z,1.79
2018-02-10T08:47:33.904Z,1.80
2018-02-10T08:50:08.627Z,1.70
2018-02-10T08:52:43.534Z,1.64
2018-02-10T08:55:18.488Z,1.58
2018-02-10T08:57:53.442Z,1.54
2018-02-10T09:00:28.168Z,1.54
2018-02-10T09:03:03.138Z,1.55
2018-02-10T09:05:37.901Z,1.57
2018-02-10T09:08:12.967Z,1.60
2018-02-10T09:10:47.834Z,1.63
2018-02-10T09:13:22.722Z,1.60
2018-02-10T09:15:57.598Z,1.54
2018-02-10T09:18:33.837Z,1.55
2018-02-10T09:21:08.679Z,1.55
2018-02-10T09:23:43.634Z,1.55
2018-02-10T09:26:18.618Z,1.68
2018-02-10T09:28:53.953Z,1.78
2018-02-10T09:31:28.917Z,1.92
2018-02-10T09:34:03.830Z,2.03
2018-02-10T09:36:38.906Z,2.08
2018-02-10T09:39:13.575Z,2.09
2018-02-10T09:41:48.986Z,2.06
2018-02-10T09:44:24.278Z,2.16
2018-02-10T09:46:59.233Z,2.26
2018-02-10T09:49:34.231Z,2.34
2018-02-10T09:52:09.291Z,2.41
2018-02-10T09:54:44.146Z,2.50
2018-02-10T09:57:18.886Z,2.45
2018-02-10T09:59:53.790Z,2.45
2018-02-10T10:02:28.730Z,2.46
2018-02-10T10:05:03.639Z,2.50
2018-02-10T10:07:38.882Z,2.52
2018-02-10T10:10:13.860Z,2.49
2018-02-10T10:12:48.845Z,2.47
2018-02-10T10:15:23.770Z,2.52
2018-02-10T10:17:58.455Z,2.54
2018-02-10T10:20:33.531Z,2.55
2018-02-10T10:23:08.375Z,2.56
2018-02-10T10:25:42.818Z,2.56
2018-02-10T10:28:17.963Z,2.55
2018-02-10T10:30:53.258Z,2.47
2018-02-10T10:33:28.231Z,2.51
2018-02-10T10:36:03.278Z,2.56
2018-02-10T10:38:37.791Z,2.60
2018-02-10T10:41:12.725Z,2.56
2018-02-10T10:43:47.739Z,2.53
2018-02-10T10:46:22.690Z,2.57
2018-02-10T10:48:57.598Z,2.63
2018-02-10T10:51:32.590Z,2.59
2018-02-10T10:54:07.586Z,2.55
2018-02-10T10:56:42.734Z,2.57
2018-02-10T10:59:17.774Z,2.59
2018-02-10T11:01:52.614Z,2.57
2018-02-10T11:04:27.793Z,2.52
2018-02-10T11:07:02.806Z,2.55
2018-02-10T11:09:37.670Z,2.55
2018-02-10T11:12:12.505Z,2.45
2018-02-10T11:14:47.618Z,2.56
2018-02-10T11:17:22.773Z,2.62
2018-02-10T11:19:57.605Z,2.65
2018-02-10T11:22:32.910Z,2.65
2018-02-10T11:25:07.960Z,2.73
2018-02-10T11:27:43.458Z,2.74
2018-02-10T11:30:18.618Z,2.79
2018-02-10T11:32:53.205Z,2.79
2018-02-10T11:35:28.814Z,2.83
2018-02-10T11:38:04.085Z,2.84
2018-02-10T11:40:39.027Z,2.83
2018-02-10T11:43:13.987Z,2.85
2018-02-10T11:45:48.722Z,2.88
2018-02-10T11:48:23.730Z,2.85
2018-02-10T11:50:58.825Z,2.88
2018-02-10T11:53:33.685Z,2.79
2018-02-10T11:56:08.434Z,2.77
2018-02-10T11:58:43.716Z,2.86
2018-02-10T12:01:18.227Z,2.89
2018-02-10T12:03:53.154Z,2.91
2018-02-10T12:06:28.550Z,2.92
2018-02-10T12:09:03.396Z,2.90
2018-02-10T12:11:38.821Z,2.95
2018-02-10T12:14:13.812Z,2.96
2018-02-10T12:16:48.819Z,3.03
2018-02-10T12:19:23.742Z,3.06
2018-02-10T12:21:59.058Z,2.94
2018-02-10T12:24:34.958Z,3.10
2018-02-10T12:27:09.694Z,3.13
2018-02-10T12:29:44.855Z,3.15
2018-02-10T12:32:20.150Z,3.13
2018-02-10T12:34:54.886Z,3.12
2018-02-10T12:37:30.133Z,3.18
2018-02-10T12:40:04.497Z,3.22
2018-02-10T12:42:39.729Z,3.23
2018-02-10T12:45:14.099Z,3.22
2018-02-10T12:47:55.306Z,3.31
2018-02-10T12:50:31.071Z,3.42
2018-02-10T12:53:06.397Z,3.53
2018-02-10T12:55:41.310Z,3.44
2018-02-10T12:58:17.238Z,3.45
2018-02-10T13:00:51.930Z,3.51
2018-02-10T13:03:26.821Z,3.54
2018-02-10T13:06:01.821Z,3.59
2018-02-10T13:08:36.298Z,3.63
2018-02-10T13:11:11.301Z,3.74
2018-02-10T13:13:46.174Z,3.70
2018-02-10T13:16:20.936Z,3.80
2018-02-10T13:18:55.905Z,3.87
2018-02-10T13:21:30.937Z,3.87
2018-02-10T13:24:06.158Z,3.80
2018-02-10T13:26:41.077Z,3.76
2018-02-10T13:29:16.854Z,3.86
2018-02-10T13:31:51.643Z,3.93
2018-02-10T13:34:26.769Z,3.97
2018-02-10T13:37:01.814Z,4.00
2018-02-10T13:39:36.833Z,3.98
2018-02-10T13:42:11.509Z,3.98
2018-02-10T13:44:46.537Z,4.03
2018-02-10T13:47:21.362Z,4.06
2018-02-10T13:49:56.577Z,4.06
2018-02-10T13:52:31.263Z,4.08
2018-02-10T13:55:06.122Z,4.11
2018-02-10T13:57:41.147Z,4.11
2018-02-10T14:00:17.335Z,4.12
2018-02-10T14:02:52.630Z,4.15
2018-02-10T14:05:27.597Z,4.12
2018-02-10T14:08:02.339Z,4.09
2018-02-10T14:10:36.974Z,4.15
2018-02-10T14:13:11.618Z,4.18
2018-02-10T14:15:46.575Z,4.16
2018-02-10T14:18:21.765Z,4.13
2018-02-10T14:20:57.214Z,4.09
2018-02-10T14:23:32.170Z,4.05
2018-02-10T14:26:07.158Z,4.02
2018-02-10T14:28:42.155Z,4.05
2018-02-10T14:31:17.556Z,4.04
2018-02-10T14:33:52.218Z,4.01
2018-02-10T14:36:27.426Z,4.02
2018-02-10T14:39:02.254Z,4.02
2018-02-10T14:41:37.303Z,3.98
2018-02-10T14:44:12.142Z,3.97
2018-02-10T14:46:47.285Z,4.04
2018-02-10T14:49:22.445Z,3.89
2018-02-10T14:51:57.281Z,3.90
2018-02-10T14:54:32.295Z,3.94
2018-02-10T14:57:07.253Z,3.98
2018-02-10T14:59:42.106Z,3.99
2018-02-10T15:02:17.570Z,4.00
2018-02-10T15:04:53.085Z,3.96
2018-02-10T15:07:27.913Z,3.93
2018-02-10T15:10:02.179Z,3.91
2018-02-10T15:12:37.328Z,3.88
2018-02-10T15:15:12.563Z,3.78
2018-02-10T15:17:47.497Z,3.81
2018-02-10T15:20:22.607Z,3.77
2018-02-10T15:22:57.353Z,3.76
2018-02-10T15:25:32.134Z,3.74
2018-02-10T15:28:06.514Z,3.86
2018-02-10T15:30:52.831Z,3.78
2018-02-10T15:33:38.667Z,3.70
2018-02-10T15:36:13.423Z,3.65
2018-02-10T15:38:48.409Z,3.67
2018-02-10T15:41:23.589Z,3.68
2018-02-10T15:43:58.786Z,3.74
2018-02-10T15:46:33.707Z,3.73
2018-02-10T15:49:08.547Z,3.73
2018-02-10T15:51:43.502Z,3.58
2018-02-10T15:54:18.811Z,3.67
2018-02-10T15:56:53.909Z,3.73
2018-02-10T15:59:28.658Z,3.57
2018-02-10T16:02:03.723Z,3.60
2018-02-10T16:04:38.844Z,3.62
2018-02-10T16:07:13.507Z,3.62
2018-02-10T16:09:48.541Z,3.58
2018-02-10T16:12:23.625Z,3.61
2018-02-10T16:14:58.570Z,3.62
2018-02-10T16:17:33.692Z,3.60
2018-02-10T16:20:08.618Z,3.64
2018-02-10T16:22:43.726Z,3.66
2018-02-10T16:25:18.067Z,3.67
2018-02-10T16:27:52.901Z,3.67
2018-02-10T16:30:27.994Z,3.58
2018-02-10T16:33:02.660Z,3.65
2018-02-10T16:35:37.523Z,3.69
2018-02-10T16:38:12.493Z,3.62
2018-02-10T16:40:47.659Z,3.59
2018-02-10T16:43:22.599Z,3.50
2018-02-10T16:45:57.531Z,3.40
2018-02-10T16:48:32.673Z,3.35
2018-02-10T16:51:07.694Z,3.43
2018-02-10T16:53:42.337Z,3.47
2018-02-10T16:56:17.954Z,3.48
2018-02-10T16:58:52.605Z,3.44
2018-02-10T17:01:27.738Z,3.31
2018-02-10T17:04:02.567Z,3.40
2018-02-10T17:06:37.601Z,3.43
2018-02-10T17:09:12.362Z,3.39
2018-02-10T17:11:47.683Z,3.35
2018-02-10T17:14:22.727Z,3.36
2018-02-10T17:16:57.695Z,3.44
2018-02-10T17:19:32.614Z,3.41
2018-02-10T17:22:07.727Z,3.34
2018-02-10T17:24:42.719Z,3.34
2018-02-10T17:27:18.118Z,3.29
2018-02-10T17:29:52.674Z,3.28
2018-02-10T17:32:27.929Z,3.24
2018-02-10T17:35:02.886Z,3.20
2018-02-10T17:37:37.716Z,3.23
2018-02-10T17:40:13.026Z,3.21
2018-02-10T17:42:47.814Z,3.22
2018-02-10T17:45:22.459Z,3.31
2018-02-10T17:47:57.618Z,3.26
2018-02-10T17:50:32.750Z,3.40
2018-02-10T17:53:07.151Z,3.40
2018-02-10T17:55:41.981Z,3.37
2018-02-10T17:58:18.011Z,3.26
2018-02-10T18:00:52.846Z,3.23
2018-02-10T18:03:28.125Z,3.32
2018-02-10T18:06:03.077Z,3.45
2018-02-10T18:08:38.078Z,3.46
2018-02-10T18:11:12.988Z,3.45
2018-02-10T18:13:47.989Z,3.50
2018-02-10T18:16:23.027Z,3.48
2018-02-10T18:18:57.869Z,3.44
2018-02-10T18:21:33.175Z,3.51
2018-02-10T18:24:07.629Z,3.60
2018-02-10T18:26:42.909Z,3.59
2018-02-10T18:29:18.216Z,3.55
2018-02-10T18:31:53.069Z,3.49
2018-02-10T18:34:27.970Z,3.51
2018-02-10T18:37:02.628Z,3.48
2018-02-10T18:39:37.476Z,3.50
2018-02-10T18:42:11.947Z,3.49
2018-02-10T18:44:47.250Z,3.50
2018-02-10T18:47:22.397Z,3.55
2018-02-10T18:49:57.907Z,3.56
2018-02-10T18:52:33.129Z,3.56
2018-02-10T18:55:08.021Z,3.57
2018-02-10T18:57:42.891Z,3.53
2018-02-10T19:00:18.286Z,3.49
2018-02-10T19:02:52.902Z,3.43
2018-02-10T19:05:27.543Z,3.40
2018-02-10T19:08:02.942Z,3.45
2018-02-10T19:10:38.064Z,3.46
2018-02-10T19:13:12.903Z,3.44
2018-02-10T19:15:47.843Z,3.44
2018-02-10T19:18:22.418Z,3.39
2018-02-10T19:20:57.267Z,3.32
2018-02-10T19:23:32.319Z,3.34
2018-02-10T19:26:07.215Z,3.33
2018-02-10T19:28:42.349Z,3.33
2018-02-10T19:31:18.398Z,3.35
2018-02-10T19:33:53.238Z,3.34
2018-02-10T19:36:28.277Z,3.35
2018-02-10T19:39:03.136Z,3.48
2018-02-10T19:41:38.193Z,3.53
2018-02-10T19:44:12.594Z,3.52
2018-02-10T19:46:47.331Z,3.48
2018-02-10T19:49:22.230Z,3.49
2018-02-10T19:51:56.587Z,3.55
2018-02-10T19:54:31.685Z,3.55
2018-02-10T19:57:06.094Z,3.53
2018-02-10T19:59:41.193Z,3.58
2018-02-10T20:02:16.122Z,3.60
2018-02-10T20:04:51.102Z,3.64
2018-02-10T20:07:26.310Z,3.66
2018-02-10T20:10:01.224Z,3.70
2018-02-10T20:12:35.635Z,3.71
2018-02-10T20:15:10.638Z,3.71
2018-02-10T20:17:45.570Z,3.75
2018-02-10T20:20:20.813Z,3.80
2018-02-10T20:22:56.121Z,3.69
2018-02-10T20:25:31.290Z,3.68
2018-02-10T20:28:06.258Z,3.68
2018-02-10T20:30:41.254Z,3.70
2018-02-10T20:33:16.306Z,3.71
2018-02-10T20:35:51.194Z,3.72
2018-02-10T20:38:26.539Z,3.66
2018-02-10T20:41:01.323Z,3.56
2018-02-10T20:43:36.706Z,3.51
2018-02-10T20:46:13.165Z,3.48
2018-02-10T20:48:47.917Z,3.41
2018-02-10T20:51:22.785Z,3.43
2018-02-10T20:53:58.271Z,3.53
2018-02-10T20:56:32.762Z,3.61
2018-02-10T20:59:08.199Z,3.60
2018-02-10T21:01:43.429Z,3.65
2018-02-10T21:04:18.700Z,3.56
2018-02-10T21:06:53.822Z,3.59
2018-02-10T21:09:28.443Z,3.63
2018-02-10T21:12:03.650Z,3.71
2018-02-10T21:14:38.422Z,3.75
2018-02-10T21:17:13.361Z,3.80
2018-02-10T21:19:48.415Z,3.78
2018-02-10T21:22:23.302Z,3.77
2018-02-10T21:24:57.853Z,3.80
2018-02-10T21:27:33.180Z,3.87
2018-02-10T21:30:08.374Z,3.84
2018-02-10T21:32:43.259Z,3.83
2018-02-10T21:35:18.803Z,3.83
2018-02-10T21:37:53.438Z,3.78
2018-02-10T21:40:28.337Z,3.78
2018-02-10T21:43:03.442Z,3.78
2018-02-10T21:45:38.218Z,3.82
2018-02-10T21:48:12.756Z,3.82
2018-02-10T21:50:47.571Z,3.76
2018-02-10T21:53:22.659Z,3.74
2018-02-10T21:55:57.673Z,3.68
2018-02-10T21:58:32.739Z,3.71
2018-02-10T22:01:07.822Z,3.69
2018-02-10T22:03:42.934Z,3.70
2018-02-10T22:06:18.777Z,3.75
2018-02-10T22:08:53.453Z,3.70
2018-02-10T22:11:28.518Z,3.68
2018-02-10T22:14:03.566Z,3.64
2018-02-10T22:16:38.154Z,3.64
2018-02-10T22:19:13.006Z,3.67
2018-02-10T22:21:47.797Z,3.68
2018-02-10T22:24:23.014Z,3.61
2018-02-10T22:26:57.945Z,3.49
2018-02-10T22:29:32.885Z,3.51
2018-02-10T22:32:07.963Z,3.57
2018-02-10T22:34:43.078Z,3.65
2018-02-10T22:37:17.829Z,3.70
2018-02-10T22:39:52.594Z,3.71
2018-02-10T22:42:26.978Z,3.66
2018-02-10T22:45:02.582Z,3.73
2018-02-10T22:47:37.569Z,3.73
2018-02-10T22:50:12.588Z,3.71
2018-02-10T22:52:47.722Z,3.75
2018-02-10T22:55:23.015Z,3.56
2018-02-10T22:57:57.930Z,3.57
2018-02-10T23:00:33.237Z,3.43
2018-02-10T23:03:08.597Z,3.44
2018-02-10T23:05:43.850Z,3.37
2018-02-10T23:08:19.061Z,3.31
2018-02-10T23:10:54.206Z,3.23
2018-02-10T23:13:29.622Z,3.19
2018-02-10T23:16:04.754Z,3.14
2018-02-10T23:18:39.689Z,3.13
2018-02-10T23:21:14.850Z,3.22
2018-02-10T23:23:50.122Z,3.18
2018-02-10T23:26:25.145Z,3.12
2018-02-10T23:29:00.579Z,3.15
2018-02-10T23:31:35.590Z,3.14
2018-02-10T23:34:10.439Z,3.13
2018-02-10T23:36:44.812Z,3.11
2018-02-10T23:39:20.078Z,3.14
2018-02-10T23:41:54.782Z,3.18
2018-02-10T23:44:29.966Z,3.17
2018-02-10T23:47:04.961Z,3.27
2018-02-10T23:49:39.923Z,3.34
2018-02-10T23:52:15.010Z,3.28
2018-02-10T23:54:49.883Z,3.18
2018-02-10T23:57:25.098Z,3.21
2018-02-10T23:59:59.895Z,3.20
